Time;durP1;ratioP1;P1;durP2;ratioP2;P2;SDS_P1;SDS_P2;PMS_P1;PMS_P2;Temp;Humidity;BMP_temperature;BMP_pressure;BME280_temperature;BME280_humidity;BME280_pressure;Samples;Min_cycle;Max_cycle;Signal;HPM_P1;HPM_P2
2023/10/04 00:01:41;;;;;;;;;;;;;;;21.22;nan;101825.16;5011208;28;19921;-91
2023/10/04 00:04:07;;;;;;;;;;;;;;;21.18;nan;101829.53;5009212;28;19929;-90
2023/10/04 00:06:32;;;;;;;;;;;;;;;21.16;nan;101839.13;5005339;28;19921;-90
2023/10/04 00:09:01;;;;;;;;;;;;;;;21.19;nan;101844.00;5005528;28;19972;-92
2023/10/04 00:11:26;;;;;;;;;;;;;;;21.11;nan;101853.63;5005610;28;19932;-90
2023/10/04 00:13:52;;;;;;;;;;;;;;;21.09;nan;101873.00;5011411;28;19921;-94
2023/10/04 00:16:18;;;;;;;;;;;;;;;21.15;nan;101860.13;5014634;28;20369;-92
2023/10/04 00:18:43;;;;;;;;;;;;;;;21.09;nan;101861.28;5007509;28;19917;-90
2023/10/04 00:21:10;;;;;;;;;;;;;;;21.11;nan;101867.25;5004078;28;19921;-92
2023/10/04 00:23:36;;;;;;;;;;;;;;;21.11;nan;101856.34;5006029;28;19932;-95
2023/10/04 00:26:01;;;;;;;;;;;;;;;21.08;nan;101859.66;5004412;28;19921;-95
2023/10/04 00:28:29;;;;;;;;;;;;;;;21.11;nan;101856.34;5005321;28;21499;-93
2023/10/04 00:30:54;;;;;;;;;;;;;;;21.15;nan;101860.13;5002575;28;19928;-90
2023/10/04 00:33:19;;;;;;;;;;;;;;;21.19;nan;101855.72;5004887;28;19921;-93
2023/10/04 00:35:45;;;;;;;;;;;;;;;21.11;nan;101869.97;5003257;28;20016;-93
2023/10/04 00:38:13;;;;;;;;;;;;;;;21.05;nan;101869.25;5003736;28;19921;-92
2023/10/04 00:40:39;;;;;;;;;;;;;;;21.05;nan;101876.59;5003214;28;19986;-90
2023/10/04 00:43:13;;;;;;;;;;;;;;;21.06;nan;101878.22;5003501;28;19933;-90
2023/10/04 00:45:39;;;;;;;;;;;;;;;21.07;nan;101882.56;5004228;28;19921;-94
2023/10/04 00:48:10;;;;;;;;;;;;;;;21.09;nan;101880.38;5003903;28;20664;-93
2023/10/04 00:50:36;;;;;;;;;;;;;;;21.16;nan;101878.09;5003826;28;20003;-91
2023/10/04 00:53:05;;;;;;;;;;;;;;;21.13;nan;101881.41;5003702;28;19974;-91
2023/10/04 00:55:32;;;;;;;;;;;;;;;21.07;nan;101882.56;5002229;28;19928;-92
2023/10/04 00:57:59;;;;;;;;;;;;;;;21.13;nan;101895.03;5003609;28;19952;-91
2023/10/04 01:00:25;;;;;;;;;;;;;;;21.15;nan;101886.56;4986813;28;19925;-91
2023/10/04 01:02:52;;;;;;;;;;;;;;;21.17;nan;101896.06;5004594;28;19949;-90
2023/10/04 01:05:22;;;;;;;;;;;;;;;21.12;nan;101898.84;5000420;28;20428;-92
2023/10/04 01:07:49;;;;;;;;;;;;;;;21.13;nan;101905.94;5004579;28;19949;-91
2023/10/04 01:10:15;;;;;;;;;;;;;;;21.12;nan;101898.84;5008769;28;19919;-89
2023/10/04 01:12:47;;;;;;;;;;;;;;;21.15;nan;101903.72;5004254;28;19968;-90
2023/10/04 01:17:49;;;;;;;;;;;;;;;21.16;nan;101899.06;5001101;28;20821;-91
2023/10/04 01:20:16;;;;;;;;;;;;;;;21.16;nan;101907.25;5002277;28;20004;-90
2023/10/04 01:22:41;;;;;;;;;;;;;;;21.17;nan;101904.25;5005441;28;20365;-90
2023/10/04 01:25:11;;;;;;;;;;;;;;;21.13;nan;101901.28;4999015;28;19926;-92
2023/10/04 01:27:38;;;;;;;;;;;;;;;21.04;nan;101913.13;5002163;28;20028;-91
2023/10/04 01:30:05;;;;;;;;;;;;;;;21.03;nan;101906.88;5002806;28;20116;-89
2023/10/04 01:32:31;;;;;;;;;;;;;;;21.01;nan;101916.44;5002773;28;20011;-90
2023/10/04 01:34:56;;;;;;;;;;;;;;;20.97;nan;101907.19;5004207;28;20008;-91
2023/10/04 01:37:22;;;;;;;;;;;;;;;20.94;nan;101907.78;5003524;28;19956;-91
2023/10/04 01:39:47;;;;;;;;;;;;;;;20.98;nan;101908.81;5001586;28;20118;-91
2023/10/04 01:42:12;;;;;;;;;;;;;;;20.92;nan;101910.00;5002965;28;20020;-91
2023/10/04 01:44:37;;;;;;;;;;;;;;;20.95;nan;101912.94;5002582;28;20177;-90
2023/10/04 01:47:03;;;;;;;;;;;;;;;20.96;nan;101930.09;5003881;28;19932;-91
2023/10/04 01:49:29;;;;;;;;;;;;;;;20.90;nan;101912.19;4997731;28;19928;-90
2023/10/04 01:51:54;;;;;;;;;;;;;;;20.85;nan;101913.06;5004968;28;19929;-89
2023/10/04 01:54:20;;;;;;;;;;;;;;;20.87;nan;101924.50;5001201;28;20377;-90
2023/10/04 01:56:46;;;;;;;;;;;;;;;20.85;nan;101925.88;4999373;28;19917;-91
2023/10/04 01:59:13;;;;;;;;;;;;;;;20.74;nan;101923.25;5002500;28;19921;-91
2023/10/04 02:01:40;;;;;;;;;;;;;;;20.73;nan;101931.72;4997890;28;19928;-91
2023/10/04 02:04:05;;;;;;;;;;;;;;;20.72;nan;101925.44;5001315;28;19933;-90
2023/10/04 02:06:31;;;;;;;;;;;;;;;20.72;nan;101922.72;5001385;28;19928;-90
2023/10/04 02:08:56;;;;;;;;;;;;;;;20.74;nan;101920.53;5020026;28;19921;-90
2023/10/04 02:11:22;;;;;;;;;;;;;;;20.65;nan;101916.81;5001912;28;19971;-91
2023/10/04 02:13:47;;;;;;;;;;;;;;;20.66;nan;101926.63;5000186;28;19933;-89
2023/10/04 02:16:18;;;;;;;;;;;;;;;20.67;nan;101917.34;5001765;28;20207;-91
2023/10/04 02:18:43;;;;;;;;;;;;;;;20.59;nan;101922.59;5004293;28;19921;-93
2023/10/04 02:21:09;;;;;;;;;;;;;;;20.61;nan;101931.28;4995678;28;19921;-90
2023/10/04 02:23:37;;;;;;;;;;;;;;;20.58;nan;101927.22;5001541;28;19926;-90
2023/10/04 02:26:05;;;;;;;;;;;;;;;20.56;nan;101929.41;5000668;28;19972;-91
2023/10/04 02:28:33;;;;;;;;;;;;;;;20.55;nan;101922.34;4999797;28;19937;-91
2023/10/04 02:30:59;;;;;;;;;;;;;;;20.54;nan;101926.16;5000737;28;20313;-89
2023/10/04 02:33:31;;;;;;;;;;;;;;;20.50;nan;101939.53;4999711;28;19921;-91
2023/10/04 02:35:57;;;;;;;;;;;;;;;20.55;nan;101933.25;5003230;28;19964;-90
2023/10/04 02:38:32;;;;;;;;;;;;;;;20.62;nan;101930.16;5002200;28;20170;-90
2023/10/04 02:40:57;;;;;;;;;;;;;;;20.56;nan;101920.44;5003176;28;19926;-90
2023/10/04 02:43:25;;;;;;;;;;;;;;;20.58;nan;101919.03;5003992;28;19925;-91
2023/10/04 02:45:53;;;;;;;;;;;;;;;20.57;nan;101913.88;5002947;28;22712;-90
2023/10/04 02:48:23;;;;;;;;;;;;;;;20.51;nan;101927.56;5001663;28;19925;-89
2023/10/04 02:50:49;;;;;;;;;;;;;;;20.51;nan;101929.47;5006789;28;19925;-90
2023/10/04 02:53:19;;;;;;;;;;;;;;;20.44;nan;101926.25;5009374;28;19944;-91
2023/10/04 02:55:46;;;;;;;;;;;;;;;20.46;nan;101926.78;5007819;28;19921;-93
2023/10/04 02:58:12;;;;;;;;;;;;;;;20.51;nan;101932.19;5003221;28;19925;-92
2023/10/04 03:00:44;;;;;;;;;;;;;;;20.55;nan;101916.91;5006780;28;19921;-88
2023/10/04 03:03:12;;;;;;;;;;;;;;;20.61;nan;101934.81;5004788;28;19922;-90
2023/10/04 03:05:38;;;;;;;;;;;;;;;20.69;nan;101934.19;5005136;28;19926;-89
2023/10/04 03:08:06;;;;;;;;;;;;;;;20.60;nan;101930.47;5004589;28;19925;-89
2023/10/04 03:10:33;;;;;;;;;;;;;;;20.54;nan;101931.63;5006209;28;19925;-91
2023/10/04 03:13:01;;;;;;;;;;;;;;;20.53;nan;101930.00;5008188;28;19953;-89
2023/10/04 03:15:28;;;;;;;;;;;;;;;20.54;nan;101928.91;5008443;28;19917;-92
2023/10/04 03:17:54;;;;;;;;;;;;;;;20.54;nan;101928.91;5008135;28;19922;-91
2023/10/04 03:20:20;;;;;;;;;;;;;;;20.56;nan;101923.97;5008575;28;19924;-94
2023/10/04 03:22:55;;;;;;;;;;;;;;;20.60;nan;101932.38;5008582;28;20004;-90
2023/10/04 03:25:23;;;;;;;;;;;;;;;20.59;nan;101931.56;5019748;28;19927;-89
2023/10/04 03:27:49;;;;;;;;;;;;;;;20.58;nan;101931.84;5006714;28;19936;-89
2023/10/04 03:30:15;;;;;;;;;;;;;;;20.57;nan;101932.94;5023115;28;19921;-92
2023/10/04 03:32:45;;;;;;;;;;;;;;;20.56;nan;101931.31;5004966;28;19925;-91
2023/10/04 03:35:14;;;;;;;;;;;;;;;20.61;nan;101944.88;5006072;28;20627;-90
2023/10/04 03:37:47;;;;;;;;;;;;;;;20.61;nan;101942.97;5009322;28;20702;-93
2023/10/04 03:40:14;;;;;;;;;;;;;;;20.61;nan;101948.41;5008406;28;19918;-91
2023/10/04 03:42:41;;;;;;;;;;;;;;;20.59;nan;101952.53;5006286;28;19925;-89
2023/10/04 03:45:07;;;;;;;;;;;;;;;20.60;nan;101952.25;5009053;28;19925;-91
2023/10/04 03:47:33;;;;;;;;;;;;;;;20.57;nan;101961.00;5006774;28;20395;-91
2023/10/04 03:49:58;;;;;;;;;;;;;;;20.59;nan;101953.34;5006581;28;19925;-93
2023/10/04 03:52:25;;;;;;;;;;;;;;;20.67;nan;101950.03;5004801;28;19922;-90
2023/10/04 03:54:50;;;;;;;;;;;;;;;20.73;nan;101946.13;5004663;28;20389;-91
2023/10/04 03:57:16;;;;;;;;;;;;;;;20.73;nan;101948.88;5005860;28;19932;-89
2023/10/04 03:59:44;;;;;;;;;;;;;;;20.73;nan;101956.22;5005034;28;19925;-89
2023/10/04 04:02:11;;;;;;;;;;;;;;;20.76;nan;101947.47;5003696;28;19928;-90
2023/10/04 04:04:36;;;;;;;;;;;;;;;20.77;nan;101947.19;4996394;28;19925;-90
2023/10/04 04:07:02;;;;;;;;;;;;;;;20.80;nan;101956.69;5005096;28;19922;-91
2023/10/04 04:09:28;;;;;;;;;;;;;;;20.75;nan;101945.84;5005831;28;19932;-94
2023/10/04 04:11:53;;;;;;;;;;;;;;;20.68;nan;101946.19;5003958;28;19925;-93
2023/10/04 04:14:18;;;;;;;;;;;;;;;20.67;nan;101950.03;5005331;28;20324;-91
2023/10/04 04:16:44;;;;;;;;;;;;;;;20.69;nan;101939.66;5006379;28;19924;-91
2023/10/04 04:19:09;;;;;;;;;;;;;;;20.68;nan;101934.50;5006639;28;19921;-91
2023/10/04 04:21:34;;;;;;;;;;;;;;;20.71;nan;101942.88;5002979;28;19918;-89
2023/10/04 04:24:00;;;;;;;;;;;;;;;20.69;nan;101945.09;5007158;28;19921;-93
2023/10/04 04:26:27;;;;;;;;;;;;;;;20.61;nan;101944.88;5004825;28;20482;-90
2023/10/04 04:28:53;;;;;;;;;;;;;;;20.60;nan;101937.81;5005915;28;19921;-93
2023/10/04 04:31:20;;;;;;;;;;;;;;;20.61;nan;101936.72;5004191;28;19963;-92
2023/10/04 04:33:45;;;;;;;;;;;;;;;20.56;nan;101940.31;5021524;28;19925;-89
2023/10/04 04:36:17;;;;;;;;;;;;;;;20.59;nan;101947.09;5001458;28;19925;-89
2023/10/04 04:38:43;;;;;;;;;;;;;;;20.60;nan;101948.72;5000807;28;19929;-94
2023/10/04 04:41:12;;;;;;;;;;;;;;;20.54;nan;101944.41;5006134;28;19921;-89
2023/10/04 04:43:38;;;;;;;;;;;;;;;20.51;nan;101952.06;5005924;28;19927;-93
2023/10/04 04:46:23;;;;;;;;;;;;;;;20.47;nan;101950.19;5004529;28;19918;-89
2023/10/04 04:48:48;;;;;;;;;;;;;;;20.43;nan;101954.56;5002082;28;20417;-91
2023/10/04 04:51:15;;;;;;;;;;;;;;;20.42;nan;101958.38;5004638;28;19918;-90
2023/10/04 04:53:45;;;;;;;;;;;;;;;20.42;nan;101961.13;5001396;28;19925;-91
2023/10/04 04:56:14;;;;;;;;;;;;;;;20.42;nan;101963.84;5002384;28;19921;-89
2023/10/04 04:58:41;;;;;;;;;;;;;;;20.39;nan;101967.09;5004268;28;20491;-93
2023/10/04 05:01:11;;;;;;;;;;;;;;;20.39;nan;101969.81;5006731;28;20041;-91
2023/10/04 05:03:36;;;;;;;;;;;;;;;20.38;nan;101976.38;5003579;28;19968;-90
2023/10/04 05:06:03;;;;;;;;;;;;;;;20.40;nan;101966.81;5000597;28;19921;-92
2023/10/04 05:08:28;;;;;;;;;;;;;;;20.41;nan;101967.66;5002190;28;19932;-91
2023/10/04 05:10:55;;;;;;;;;;;;;;;20.42;nan;101978.25;5016632;28;19921;-92
2023/10/04 05:13:21;;;;;;;;;;;;;;;20.41;nan;101975.81;5005682;28;19944;-90
2023/10/04 05:15:46;;;;;;;;;;;;;;;20.39;nan;101975.25;5004238;28;20401;-91
2023/10/04 05:18:15;;;;;;;;;;;;;;;20.35;nan;101966.06;5003733;28;19960;-89
2023/10/04 05:20:54;;;;;;;;;;;;;;;20.34;nan;101964.44;5001623;28;19918;-89
2023/10/04 05:23:21;;;;;;;;;;;;;;;20.35;nan;101976.94;5001253;28;20447;-92
2023/10/04 05:25:47;;;;;;;;;;;;;;;20.32;nan;101975.59;5003198;28;19917;-92
2023/10/04 05:28:12;;;;;;;;;;;;;;;20.35;nan;101976.94;5008197;28;19979;-91
2023/10/04 05:30:39;;;;;;;;;;;;;;;20.36;nan;101975.84;5004858;28;19926;-92
2023/10/04 05:33:06;;;;;;;;;;;;;;;20.39;nan;101986.16;5019071;28;20012;-91
2023/10/04 05:35:32;;;;;;;;;;;;;;;20.36;nan;101986.72;4997206;28;19921;-91
2023/10/04 05:37:57;;;;;;;;;;;;;;;20.39;nan;101984.25;5006336;28;19925;-91
2023/10/04 05:40:25;;;;;;;;;;;;;;;20.40;nan;101979.59;5019230;28;19921;-90
2023/10/04 05:42:54;;;;;;;;;;;;;;;20.43;nan;101992.69;5003283;28;19964;-89
2023/10/04 05:45:20;;;;;;;;;;;;;;;20.47;nan;101993.75;4999994;28;19929;-93
2023/10/04 05:47:46;;;;;;;;;;;;;;;20.49;nan;102002.44;5002358;28;19926;-92
2023/10/04 05:50:18;;;;;;;;;;;;;;;20.47;nan;102012.81;5001369;28;19921;-91
2023/10/04 05:53:05;;;;;;;;;;;;;;;20.49;nan;102013.34;5003552;28;19923;-92
2023/10/04 05:55:32;;;;;;;;;;;;;;;20.51;nan;102025.56;5001920;28;19953;-91
2023/10/04 05:57:57;;;;;;;;;;;;;;;20.55;nan;102020.38;5002955;28;19928;-95
2023/10/04 06:00:28;;;;;;;;;;;;;;;20.51;nan;102027.47;5005641;28;19917;-92
2023/10/04 06:02:53;;;;;;;;;;;;;;;20.56;nan;102027.44;5007092;28;19921;-89
2023/10/04 06:05:20;;;;;;;;;;;;;;;20.55;nan;102030.44;5007043;28;20274;-94
2023/10/04 06:07:46;;;;;;;;;;;;;;;20.52;nan;102032.63;5008742;28;20051;-94
2023/10/04 06:10:12;;;;;;;;;;;;;;;20.59;nan;102035.03;5009786;28;19925;-94
2023/10/04 06:12:38;;;;;;;;;;;;;;;20.63;nan;102038.81;5005040;28;20362;-93
2023/10/04 06:15:04;;;;;;;;;;;;;;;20.63;nan;102033.34;5000198;28;19947;-92
2023/10/04 06:17:29;;;;;;;;;;;;;;;20.65;nan;102041.28;5005751;28;19925;-93
2023/10/04 06:19:56;;;;;;;;;;;;;;;20.67;nan;102045.34;5005527;28;20373;-91
2023/10/04 06:22:21;;;;;;;;;;;;;;;20.67;nan;102058.94;5008623;28;19928;-91
2023/10/04 06:24:46;;;;;;;;;;;;;;;20.66;nan;102053.78;5005950;28;19921;-94
2023/10/04 06:27:13;;;;;;;;;;;;;;;20.70;nan;102058.38;5016562;28;19927;-95
2023/10/04 06:29:38;;;;;;;;;;;;;;;20.80;nan;102060.19;5006386;28;19932;-91
2023/10/04 06:32:04;;;;;;;;;;;;;;;20.75;nan;102055.59;5008515;28;19917;-92
2023/10/04 06:34:29;;;;;;;;;;;;;;;20.80;nan;102055.56;5010846;28;20322;-91
2023/10/04 06:36:54;;;;;;;;;;;;;;;20.96;nan;102060.88;5008695;28;20460;-92
2023/10/04 06:39:20;;;;;;;;;;;;;;;20.94;nan;102055.72;5005839;28;19924;-91
2023/10/04 06:41:45;;;;;;;;;;;;;;;21.01;nan;102071.75;5012442;28;20408;-92
2023/10/04 06:44:10;;;;;;;;;;;;;;;21.07;nan;102065.97;5014119;28;19975;-89
2023/10/04 06:46:36;;;;;;;;;;;;;;;21.10;nan;102070.00;5009273;28;19922;-90
2023/10/04 06:49:02;;;;;;;;;;;;;;;21.13;nan;102069.44;5007761;28;19972;-90
2023/10/04 06:51:27;;;;;;;;;;;;;;;21.15;nan;102080.84;5010171;28;19921;-89
2023/10/04 06:53:53;;;;;;;;;;;;;;;21.19;nan;102078.41;5009603;28;20000;-92
2023/10/04 06:56:18;;;;;;;;;;;;;;;21.13;nan;102074.88;5007531;28;19953;-89
2023/10/04 06:58:43;;;;;;;;;;;;;;;21.17;nan;102083.28;5010566;28;19945;-95
2023/10/04 07:01:10;;;;;;;;;;;;;;;21.22;nan;102081.34;5011084;28;20460;-95
2023/10/04 07:03:35;;;;;;;;;;;;;;;21.26;nan;102076.16;5008709;28;19917;-93
2023/10/04 07:06:00;;;;;;;;;;;;;;;21.35;nan;102072.50;5010203;28;19918;-95
2023/10/04 07:08:32;;;;;;;;;;;;;;;21.41;nan;102098.66;5007707;28;19936;-92
2023/10/04 07:11:00;;;;;;;;;;;;;;;21.47;nan;102098.59;5010317;28;19960;-91
2023/10/04 07:13:25;;;;;;;;;;;;;;;21.53;nan;102095.50;5005802;28;19997;-90
2023/10/04 07:15:51;;;;;;;;;;;;;;;21.63;nan;102097.31;5013266;28;19929;-96
2023/10/04 07:18:16;;;;;;;;;;;;;;;21.70;nan;102100.50;5005640;28;19971;-92
2023/10/04 07:20:42;;;;;;;;;;;;;;;21.73;nan;102099.94;5008925;28;19932;-93
2023/10/04 07:23:09;;;;;;;;;;;;;;;21.70;nan;102106.75;5010202;28;19925;-93
2023/10/04 07:25:35;;;;;;;;;;;;;;;21.60;nan;102103.34;5008393;28;19921;-95
2023/10/04 07:28:02;;;;;;;;;;;;;;;21.56;nan;102114.03;5010138;28;20455;-92
2023/10/04 07:30:28;;;;;;;;;;;;;;;21.48;nan;102111.94;5007391;28;20389;-91
2023/10/04 07:32:53;;;;;;;;;;;;;;;21.48;nan;102108.38;5009453;28;20212;-95
2023/10/04 07:35:21;;;;;;;;;;;;;;;21.51;nan;102127.69;5009686;28;20007;-95
2023/10/04 07:37:47;;;;;;;;;;;;;;;21.55;nan;102120.59;5007846;28;19917;-95
2023/10/04 07:40:14;;;;;;;;;;;;;;;21.56;nan;102126.88;5007555;28;19921;-91
2023/10/04 07:42:40;;;;;;;;;;;;;;;21.61;nan;102129.53;5007183;28;19980;-90
2023/10/04 07:45:07;;;;;;;;;;;;;;;21.69;nan;102132.41;5009006;28;19960;-91
2023/10/04 07:47:36;;;;;;;;;;;;;;;21.71;nan;102135.66;5009748;28;19921;-92
2023/10/04 07:50:03;;;;;;;;;;;;;;;21.81;nan;102129.31;5005426;28;19921;-93
2023/10/04 07:52:29;;;;;;;;;;;;;;;21.91;nan;102151.03;5008156;28;19925;-92
2023/10/04 07:54:55;;;;;;;;;;;;;;;21.85;nan;102115.88;5016044;28;19959;-93
2023/10/04 07:57:22;;;;;;;;;;;;;;;21.86;nan;102131.16;5011309;28;19924;-95
2023/10/04 07:59:48;;;;;;;;;;;;;;;21.84;nan;102134.16;5012067;28;19925;-94
2023/10/04 08:02:13;;;;;;;;;;;;;;;21.79;nan;102131.50;5008197;28;20008;-92
2023/10/04 08:04:38;;;;;;;;;;;;;;;21.80;nan;102135.88;5007957;28;19991;-93
2023/10/04 08:07:12;;;;;;;;;;;;;;;21.85;nan;102134.97;5013297;28;19929;-94
2023/10/04 08:09:38;;;;;;;;;;;;;;;21.85;nan;102141.25;5009314;28;20460;-93
2023/10/04 08:12:07;;;;;;;;;;;;;;;21.85;nan;102135.78;5009126;28;19936;-90
2023/10/04 08:14:32;;;;;;;;;;;;;;;21.86;nan;102142.88;5010358;28;19929;-96
2023/10/04 08:16:58;;;;;;;;;;;;;;;21.96;nan;102148.22;5010308;28;20332;-93
2023/10/04 08:19:24;;;;;;;;;;;;;;;22.02;nan;102146.25;5010129;28;20004;-95
2023/10/04 08:21:49;;;;;;;;;;;;;;;22.09;nan;102160.41;5012580;28;20012;-90
2023/10/04 08:24:17;;;;;;;;;;;;;;;22.10;nan;102156.56;5007156;28;20008;-94
2023/10/04 08:26:43;;;;;;;;;;;;;;;22.10;nan;102155.75;5006574;28;20040;-93
2023/10/04 08:29:09;;;;;;;;;;;;;;;22.18;nan;102160.56;5005468;28;20009;-90
2023/10/04 08:31:36;;;;;;;;;;;;;;;22.30;nan;102169.16;5005382;28;19928;-91
2023/10/04 08:34:02;;;;;;;;;;;;;;;22.42;nan;102155.84;5012679;28;20556;-91
2023/10/04 08:36:28;;;;;;;;;;;;;;;22.45;nan;102157.22;5010332;28;20008;-90
2023/10/04 08:38:53;;;;;;;;;;;;;;;22.38;nan;102181.31;5016653;28;20130;-96
2023/10/04 08:41:18;;;;;;;;;;;;;;;22.40;nan;102171.72;5001845;28;21326;-90
2023/10/04 08:43:44;;;;;;;;;;;;;;;22.39;nan;102178.28;5004366;28;20036;-93
2023/10/04 08:46:10;;;;;;;;;;;;;;;22.31;nan;102181.69;5008833;28;19902;-94
2023/10/04 08:48:35;;;;;;;;;;;;;;;22.23;nan;102185.88;5024231;28;20408;-92
2023/10/04 08:51:09;;;;;;;;;;;;;;;22.20;nan;102182.91;5018242;28;19921;-93
2023/10/04 08:53:40;;;;;;;;;;;;;;;22.27;nan;102173.28;5008506;28;19968;-89
2023/10/04 08:56:08;;;;;;;;;;;;;;;22.33;nan;102184.94;5010244;28;20015;-92
2023/10/04 08:58:35;;;;;;;;;;;;;;;22.52;nan;102193.97;5005612;28;19928;-96
2023/10/04 09:01:03;;;;;;;;;;;;;;;22.63;nan;102177.47;5014063;28;19922;-96
2023/10/04 09:03:29;;;;;;;;;;;;;;;22.78;nan;102188.13;5005747;28;20075;-92
2023/10/04 09:05:55;;;;;;;;;;;;;;;22.87;nan;102183.69;5006249;28;19921;-90
2023/10/04 09:08:22;;;;;;;;;;;;;;;22.91;nan;102174.59;5017112;28;19979;-92
2023/10/04 09:10:47;;;;;;;;;;;;;;;22.95;nan;102185.72;5007877;28;19924;-95
2023/10/04 09:13:13;;;;;;;;;;;;;;;23.00;nan;102193.06;5017458;28;19925;-95
2023/10/04 09:15:38;;;;;;;;;;;;;;;23.09;nan;102207.66;5012253;28;19928;-92
2023/10/04 09:18:04;;;;;;;;;;;;;;;23.04;nan;102196.81;5004536;28;20423;-91
2023/10/04 09:20:32;;;;;;;;;;;;;;;23.05;nan;102204.72;5018038;28;19921;-92
2023/10/04 09:23:00;;;;;;;;;;;;;;;23.05;nan;102207.44;5008448;28;19980;-94
2023/10/04 09:25:36;;;;;;;;;;;;;;;23.14;nan;102210.31;5013031;28;19925;-94
2023/10/04 09:28:01;;;;;;;;;;;;;;;23.28;nan;102202.16;5016186;28;19928;-94
2023/10/04 09:30:28;;;;;;;;;;;;;;;23.34;nan;102195.50;5011990;28;19922;-91
2023/10/04 09:32:53;;;;;;;;;;;;;;;23.32;nan;102192.25;5004655;28;19921;-95
2023/10/04 09:35:19;;;;;;;;;;;;;;;23.43;nan;102207.38;5002350;28;19952;-94
2023/10/04 09:37:45;;;;;;;;;;;;;;;23.61;nan;102195.63;5017393;28;19985;-93
2023/10/04 09:40:15;;;;;;;;;;;;;;;23.75;nan;102203.84;5008759;28;19918;-93
2023/10/04 09:42:49;;;;;;;;;;;;;;;23.92;nan;102209.56;5016154;28;19917;-96
2023/10/04 09:45:14;;;;;;;;;;;;;;;24.02;nan;102212.06;5008936;28;19917;-94
2023/10/04 09:47:39;;;;;;;;;;;;;;;23.99;nan;102211.88;5001593;28;19929;-94
2023/10/04 09:50:10;;;;;;;;;;;;;;;23.99;nan;102206.41;5007564;28;19918;-96
2023/10/04 09:52:37;;;;;;;;;;;;;;;23.87;nan;102211.56;5005197;28;20463;-92
2023/10/04 09:55:05;;;;;;;;;;;;;;;23.80;nan;102212.78;5003243;28;20414;-96
2023/10/04 09:57:32;;;;;;;;;;;;;;;23.84;nan;102210.22;5011590;28;20019;-95
2023/10/04 09:59:57;;;;;;;;;;;;;;;23.87;nan;102219.75;5010314;28;19929;-92
2023/10/04 10:02:26;;;;;;;;;;;;;;;23.88;nan;102224.13;5013967;28;20314;-95
2023/10/04 10:04:52;;;;;;;;;;;;;;;23.95;nan;102224.56;5005058;28;19925;-91
2023/10/04 10:07:23;;;;;;;;;;;;;;;24.06;nan;102231.47;5012930;28;19925;-96
2023/10/04 10:09:55;;;;;;;;;;;;;;;24.08;nan;102223.75;5005709;28;19922;-91
2023/10/04 10:12:22;;;;;;;;;;;;;;;24.21;nan;102228.41;4999613;28;19928;-94
2023/10/04 10:14:48;;;;;;;;;;;;;;;24.20;nan;102221.31;5025486;28;19917;-95
2023/10/04 10:17:13;;;;;;;;;;;;;;;24.33;nan;102220.53;5020549;28;19928;-96
2023/10/04 10:19:39;;;;;;;;;;;;;;;24.49;nan;102228.44;5023965;28;19921;-95
2023/10/04 10:22:16;;;;;;;;;;;;;;;24.58;nan;102226.59;5015439;28;19921;-95
2023/10/04 10:24:53;;;;;;;;;;;;;;;24.68;nan;102237.34;5013388;28;19921;-94
2023/10/04 10:27:19;;;;;;;;;;;;;;;24.79;nan;102230.53;5008154;28;19929;-92
2023/10/04 10:29:45;;;;;;;;;;;;;;;24.84;nan;102237.81;5005832;28;19943;-94
2023/10/04 10:32:15;;;;;;;;;;;;;;;24.77;nan;102240.94;5030364;28;19922;-94
2023/10/04 10:34:41;;;;;;;;;;;;;;;24.70;nan;102238.66;5010303;28;19929;-96
2023/10/04 10:37:15;;;;;;;;;;;;;;;24.58;nan;102243.03;5015262;28;19944;-91
2023/10/04 10:39:45;;;;;;;;;;;;;;;24.40;nan;102248.31;5010992;28;19917;-92
2023/10/04 10:42:11;;;;;;;;;;;;;;;24.27;nan;102251.06;5027707;28;19918;-90
2023/10/04 10:44:39;;;;;;;;;;;;;;;24.30;nan;102256.75;5016954;28;19925;-92
2023/10/04 10:47:14;;;;;;;;;;;;;;;24.41;nan;102249.13;5030141;28;19925;-94
2023/10/04 10:49:44;;;;;;;;;;;;;;;24.54;nan;102264.75;5016162;28;20404;-94
2023/10/04 10:52:19;;;;;;;;;;;;;;;24.48;nan;102244.06;5006179;28;19926;-94
2023/10/04 10:54:44;;;;;;;;;;;;;;;24.47;nan;102242.44;5004264;28;20490;-93
2023/10/04 10:57:12;;;;;;;;;;;;;;;24.50;nan;102251.97;5011652;28;19961;-96
2023/10/04 10:59:37;;;;;;;;;;;;;;;24.47;nan;102236.16;5017056;28;19925;-93
2023/10/04 11:02:04;;;;;;;;;;;;;;;24.50;nan;102241.00;5008297;28;19924;-94
2023/10/04 11:04:30;;;;;;;;;;;;;;;24.47;nan;102233.41;5013195;28;19913;-95
2023/10/04 11:06:55;;;;;;;;;;;;;;;24.38;nan;102227.81;5022762;28;19924;-95
2023/10/04 11:09:21;;;;;;;;;;;;;;;24.44;nan;102236.78;5018327;28;20467;-95
2023/10/04 11:11:47;;;;;;;;;;;;;;;24.44;nan;102226.63;5008547;28;20147;-93
2023/10/04 11:14:16;;;;;;;;;;;;;;;24.60;nan;102232.59;5010458;28;19921;-89
2023/10/04 11:16:41;;;;;;;;;;;;;;;24.56;nan;102239.78;5008306;28;20444;-88
2023/10/04 11:19:07;;;;;;;;;;;;;;;24.57;nan;102244.16;5005605;28;20020;-86
2023/10/04 11:21:32;;;;;;;;;;;;;;;24.51;nan;102248.13;5010976;28;19955;-87
2023/10/04 11:24:01;;;;;;;;;;;;;;;24.41;nan;102257.34;5010020;28;19925;-94
2023/10/04 11:26:27;;;;;;;;;;;;;;;24.45;nan;102268.53;5007558;28;20004;-91
2023/10/04 11:28:53;;;;;;;;;;;;;;;24.48;nan;102285.16;5012035;28;20008;-95
2023/10/04 11:31:18;;;;;;;;;;;;;;;24.45;nan;102288.50;5013025;28;20804;-87
2023/10/04 11:33:50;;;;;;;;;;;;;;;24.45;nan;102274.00;5004766;28;20004;-94
2023/10/04 11:36:22;;;;;;;;;;;;;;;24.37;nan;102278.25;5012282;28;19921;-89
2023/10/04 11:38:49;;;;;;;;;;;;;;;24.38;nan;102272.47;5009151;28;19913;-93
2023/10/04 11:41:15;;;;;;;;;;;;;;;24.40;nan;102264.75;5008670;28;20333;-91
2023/10/04 11:43:40;;;;;;;;;;;;;;;24.39;nan;102273.28;5009371;28;19964;-92
2023/10/04 11:46:06;;;;;;;;;;;;;;;24.41;nan;102271.84;5016398;28;19921;-95
2023/10/04 11:48:31;;;;;;;;;;;;;;;24.42;nan;102267.22;5025186;28;19964;-96
2023/10/04 11:50:57;;;;;;;;;;;;;;;24.41;nan;102273.78;5023773;28;19917;-95
2023/10/04 11:53:38;;;;;;;;;;;;;;;24.32;nan;102270.94;5028339;28;19949;-96
2023/10/04 11:56:07;;;;;;;;;;;;;;;24.21;nan;102268.69;5024644;28;19963;-95
2023/10/04 11:58:52;;;;;;;;;;;;;;;24.02;nan;102274.22;5010791;28;19917;-93
2023/10/04 12:01:19;;;;;;;;;;;;;;;23.88;nan;102267.91;5009728;28;19933;-96
2023/10/04 12:03:46;;;;;;;;;;;;;;;23.76;nan;102266.50;5029524;28;20040;-94
2023/10/04 12:06:13;;;;;;;;;;;;;;;23.70;nan;102277.84;5007499;28;19917;-89
2023/10/04 12:08:39;;;;;;;;;;;;;;;23.74;nan;102274.19;5008087;28;19930;-89
2023/10/04 12:11:13;;;;;;;;;;;;;;;23.86;nan;102272.88;5007579;28;19963;-88
2023/10/04 12:13:41;;;;;;;;;;;;;;;23.93;nan;102276.06;5009836;28;20207;-88
2023/10/04 12:16:07;;;;;;;;;;;;;;;23.96;nan;102273.53;5006501;28;19951;-84
2023/10/04 12:18:32;;;;;;;;;;;;;;;23.93;nan;102276.88;5009525;28;20020;-89
2023/10/04 12:20:58;;;;;;;;;;;;;;;23.88;nan;102273.38;5010623;28;19925;-95
2023/10/04 12:23:23;;;;;;;;;;;;;;;23.98;nan;102265.00;5008858;28;19927;-88
2023/10/04 12:25:48;;;;;;;;;;;;;;;24.14;nan;102269.09;5011778;28;20373;-92
2023/10/04 12:28:14;;;;;;;;;;;;;;;24.24;nan;102260.69;5008312;28;20352;-90
2023/10/04 12:30:39;;;;;;;;;;;;;;;24.29;nan;102266.09;5008183;28;20409;-88
2023/10/04 12:33:05;;;;;;;;;;;;;;;24.31;nan;102260.31;5007172;28;19925;-86
2023/10/04 12:35:31;;;;;;;;;;;;;;;24.40;nan;102261.19;5006221;28;19922;-91
2023/10/04 12:37:56;;;;;;;;;;;;;;;24.51;nan;102253.59;5007069;28;20468;-88
2023/10/04 12:40:25;;;;;;;;;;;;;;;24.61;nan;102247.91;5002704;28;20465;-92
2023/10/04 12:42:53;;;;;;;;;;;;;;;24.80;nan;102256.00;5008380;28;19917;-93
2023/10/04 12:45:19;;;;;;;;;;;;;;;24.98;nan;102257.78;5008930;28;20262;-92
2023/10/04 12:47:45;;;;;;;;;;;;;;;25.14;nan;102264.56;5009877;28;20464;-91
2023/10/04 12:50:17;;;;;;;;;;;;;;;25.26;nan;102267.56;5009482;28;20048;-95
2023/10/04 12:52:43;;;;;;;;;;;;;;;25.40;nan;102263.94;5008232;28;19921;-89
2023/10/04 12:55:11;;;;;;;;;;;;;;;25.51;nan;102260.66;5009983;28;19924;-89
2023/10/04 12:57:36;;;;;;;;;;;;;;;25.64;nan;102261.69;5009992;28;19922;-86
2023/10/04 13:00:13;;;;;;;;;;;;;;;25.79;nan;102271.50;5004170;28;20377;-86